createdAt,value
2023-05-12T05:01:32.735Z,101466.91
2023-05-12T05:04:19.096Z,101470.19
2023-05-12T05:07:06.700Z,101470.25
2023-05-12T05:09:53.699Z,101470.38
2023-05-12T05:12:40.267Z,101461.84
2023-05-12T06:04:35.728Z,101473.22
2023-05-12T06:07:22.313Z,101474.91
2023-05-12T06:10:09.553Z,101459.25
2023-05-12T06:12:55.610Z,101459.03
2023-05-12T06:15:42.032Z,101453.59
2023-05-12T06:18:28.241Z,101449.84
2023-05-12T06:21:15.669Z,101459.75
2023-05-12T06:24:02.339Z,101464.81
2023-05-12T06:26:48.417Z,101466.34
2023-05-12T06:29:34.906Z,101472.41
2023-05-12T06:32:21.461Z,101475.31
2023-05-12T06:35:08.189Z,101477.84
2023-05-12T06:37:55.818Z,101477.88
2023-05-12T06:40:42.100Z,101477.63
2023-05-12T06:43:28.762Z,101482.09
2023-05-12T06:56:50.689Z,101488.00
2023-05-12T07:07:50.241Z,101499.38
2023-05-12T07:29:59.135Z,101508.00
2023-05-12T07:33:15.748Z,101505.16
2023-05-12T07:37:16.213Z,101512.13
2023-05-12T08:08:20.486Z,101534.66
2023-05-12T08:22:19.498Z,101542.75
2023-05-12T08:26:35.747Z,101550.84
2023-05-12T08:30:49.080Z,101559.81
2023-05-12T08:34:45.359Z,101564.09
2023-05-12T08:42:44.899Z,101581.63
2023-05-12T08:45:31.287Z,101609.97
2023-05-12T08:48:20.324Z,101614.19
2023-05-12T08:51:09.991Z,101627.72
2023-05-12T08:53:56.948Z,101635.88
2023-05-12T08:57:29.437Z,101647.22
2023-05-12T09:11:13.994Z,101653.00
2023-05-12T09:38:21.847Z,101695.59
2023-05-12T09:43:04.548Z,101694.44
2023-05-12T09:54:31.332Z,101701.56
2023-05-12T09:57:27.278Z,101710.16
2023-05-12T10:00:30.332Z,101710.97
2023-05-12T10:03:26.152Z,101729.66
2023-05-12T10:06:16.481Z,101728.84
2023-05-12T10:09:07.541Z,101727.28
2023-05-12T10:11:56.463Z,101722.66
2023-05-12T10:14:51.629Z,101742.25
2023-05-12T13:05:16.276Z,101803.84
2023-05-12T13:08:03.322Z,101809.72
2023-05-12T13:10:49.529Z,101795.84
2023-05-12T13:13:36.852Z,101809.66
2023-05-12T13:16:23.649Z,101807.50
2023-05-12T13:19:11.384Z,101804.09
2023-05-12T13:21:59.118Z,101803.47
2023-05-12T13:24:45.749Z,101797.00
2023-05-12T13:27:31.868Z,101793.69
2023-05-12T13:30:18.633Z,101795.94
2023-05-12T13:33:06.152Z,101799.25
2023-05-12T13:35:52.553Z,101795.03
2023-05-12T13:38:40.790Z,101796.63
2023-05-12T13:41:27.509Z,101797.78
2023-05-12T13:44:14.063Z,101800.00
2023-05-12T13:47:00.710Z,101794.88
2023-05-12T13:49:46.910Z,101800.97
2023-05-12T13:52:32.987Z,101798.28
2023-05-12T13:55:21.752Z,101802.28
2023-05-12T13:58:08.155Z,101794.47
2023-05-12T14:00:54.520Z,101795.97
2023-05-12T14:03:42.027Z,101794.22
2023-05-12T14:06:28.409Z,101788.72
2023-05-12T14:09:14.791Z,101792.88
2023-05-12T14:12:02.431Z,101797.78
2023-05-12T14:14:50.068Z,101791.84
2023-05-12T14:17:36.635Z,101788.94
2023-05-12T14:20:23.008Z,101787.28
2023-05-12T14:23:09.114Z,101787.84
2023-05-12T14:26:07.564Z,101800.66
2023-05-12T14:28:55.828Z,101798.56
2023-05-12T14:31:42.548Z,101795.69
2023-05-12T14:34:28.536Z,101798.38
2023-05-12T14:37:14.993Z,101802.25
2023-05-12T14:40:01.643Z,101796.56
2023-05-12T14:42:48.337Z,101798.66
2023-05-12T14:46:25.902Z,101800.06
2023-05-12T14:49:15.925Z,101805.53
2023-05-12T14:52:03.689Z,101808.50
2023-05-12T14:54:50.716Z,101805.56
2023-05-12T14:57:37.721Z,101810.63
2023-05-12T15:04:49.407Z,101811.19
2023-05-12T15:08:25.691Z,101798.41
2023-05-12T15:11:12.208Z,101809.16
2023-05-12T15:13:58.318Z,101809.53
2023-05-12T15:16:44.805Z,101801.72
2023-05-12T15:19:32.434Z,101802.47
2023-05-12T15:22:18.697Z,101800.22
2023-05-12T15:25:09.053Z,101786.22
2023-05-12T15:27:55.580Z,101787.25
2023-05-12T15:30:42.166Z,101790.47
2023-05-12T15:33:30.386Z,101782.53
2023-05-12T15:36:21.005Z,101784.94
2023-05-12T15:39:07.411Z,101790.94
2023-05-12T15:41:57.496Z,101782.78
2023-05-12T15:44:46.582Z,101775.66
2023-05-12T15:47:34.050Z,101785.94
2023-05-12T15:50:22.587Z,101788.47
2023-05-12T15:54:27.009Z,101789.66
2023-05-12T15:57:39.307Z,101789.38
2023-05-12T16:00:25.796Z,101794.72
2023-05-12T16:03:15.057Z,101787.16
2023-05-12T16:06:04.760Z,101793.34
2023-05-12T16:08:52.374Z,101792.84
2023-05-12T16:11:39.560Z,101793.88
2023-05-12T16:14:27.148Z,101789.72
2023-05-12T16:17:14.094Z,101802.56
2023-05-12T16:20:01.915Z,101820.09
2023-05-12T16:22:48.201Z,101815.97
2023-05-12T16:25:34.791Z,101759.84
2023-05-12T16:28:21.681Z,101764.47
2023-05-12T16:31:09.671Z,101740.59
2023-05-12T16:33:55.762Z,101755.66
2023-05-12T16:36:41.958Z,101748.19
2023-05-12T16:39:35.943Z,101747.75
2023-05-12T16:42:22.580Z,101742.13
2023-05-12T16:45:10.874Z,101755.06
2023-05-12T16:47:58.517Z,101749.16
2023-05-12T16:50:45.087Z,101761.00
2023-05-12T16:53:31.931Z,101757.78
2023-05-12T17:01:47.893Z,101759.78
2023-05-12T17:04:35.912Z,101775.63
2023-05-12T17:07:23.189Z,101775.00
2023-05-12T17:10:10.008Z,101777.69
2023-05-12T17:12:56.517Z,101772.78
2023-05-12T17:15:42.777Z,101780.03
2023-05-12T17:18:29.220Z,101791.03
2023-05-12T17:21:17.342Z,101793.88
2023-05-12T17:24:03.845Z,101795.53
2023-05-12T17:26:50.515Z,101806.16
2023-05-12T17:29:37.112Z,101812.88
2023-05-12T17:32:23.686Z,101806.66
2023-05-12T17:35:11.390Z,101809.06
2023-05-12T17:37:58.900Z,101807.69
2023-05-12T17:40:45.070Z,101811.41
2023-05-12T17:43:31.546Z,101824.31
2023-05-12T17:46:18.058Z,101833.44
2023-05-12T17:49:04.450Z,101838.22
2023-05-12T17:51:51.294Z,101844.00
2023-05-12T17:54:39.297Z,101840.09
2023-05-12T17:57:25.756Z,101848.59
2023-05-12T18:00:15.610Z,101852.06
2023-05-12T18:03:02.137Z,101857.94
2023-05-12T18:05:48.897Z,101864.78
2023-05-12T18:08:35.779Z,101864.41
2023-05-12T18:11:23.433Z,101867.94
2023-05-12T18:14:09.885Z,101877.75
2023-05-12T18:16:58.440Z,101877.94
2023-05-12T18:19:45.075Z,101880.59
2023-05-12T18:22:31.606Z,101881.56
2023-05-12T18:25:18.193Z,101885.69
2023-05-12T18:28:08.507Z,101886.63
2023-05-12T18:30:58.064Z,101882.16
2023-05-12T18:33:48.025Z,101876.09
2023-05-12T18:36:35.297Z,101875.13
2023-05-12T18:39:22.362Z,101880.28
2023-05-12T18:42:10.363Z,101864.53
2023-05-12T18:44:58.495Z,101874.56
2023-05-12T18:47:45.303Z,101868.53
2023-05-12T18:50:31.855Z,101871.50
2023-05-12T18:53:18.047Z,101869.59
2023-05-12T18:56:04.529Z,101865.78
2023-05-12T18:58:51.247Z,101881.13
2023-05-12T19:05:54.603Z,101886.44
2023-05-12T19:08:42.140Z,101893.75
2023-05-12T19:11:28.807Z,101888.50
2023-05-12T19:14:17.840Z,101900.22
2023-05-12T19:17:04.280Z,101899.91
2023-05-12T19:19:50.577Z,101897.50
2023-05-12T19:22:36.978Z,101906.31
2023-05-12T19:25:24.927Z,101910.09
2023-05-12T19:28:11.872Z,101914.22
2023-05-12T19:30:58.370Z,101927.16
2023-05-12T19:33:44.775Z,101923.53
2023-05-12T19:36:31.609Z,101917.88
2023-05-12T19:39:19.127Z,101922.19
2023-05-12T19:42:07.269Z,101924.28
2023-05-12T19:44:53.794Z,101928.06
2023-05-12T19:47:40.839Z,101927.56
2023-05-12T19:50:30.113Z,101923.16
2023-05-12T19:53:16.904Z,101921.47
2023-05-12T19:56:03.628Z,101924.44
2023-05-12T19:58:52.401Z,101933.91
2023-05-12T20:24:32.253Z,101945.66
2023-05-12T20:27:18.409Z,101947.28
2023-05-12T20:30:05.779Z,101953.22
2023-05-12T20:32:52.749Z,101952.38
2023-05-12T20:35:39.178Z,101954.50
2023-05-12T20:38:25.419Z,101939.94
2023-05-12T20:41:13.669Z,101952.31
2023-05-12T20:44:00.607Z,101949.63
2023-05-12T20:46:48.068Z,101949.81
2023-05-12T20:49:34.722Z,101951.75
2023-05-12T20:52:22.197Z,101949.63
2023-05-12T20:55:09.603Z,101948.78
2023-05-12T20:57:57.880Z,101957.03
2023-05-12T21:00:45.069Z,101958.06
2023-05-12T21:03:32.502Z,101947.94
2023-05-12T21:06:18.821Z,101964.84
2023-05-12T21:09:05.768Z,101955.53
2023-05-12T21:11:51.989Z,101961.44
2023-05-12T21:14:40.497Z,101955.31
2023-05-12T21:17:27.716Z,101966.28
2023-05-12T21:20:14.045Z,101965.66
2023-05-12T21:23:00.309Z,101970.06
2023-05-12T21:25:46.581Z,101979.38
2023-05-12T21:28:32.765Z,101976.19
2023-05-12T21:31:20.316Z,101985.47
2023-05-12T21:34:07.155Z,101981.88
2023-05-12T21:36:54.560Z,101986.31
2023-05-12T21:39:41.121Z,101993.06
2023-05-12T21:42:27.490Z,101994.97
2023-05-12T21:45:13.947Z,101991.16
2023-05-12T21:48:01.531Z,102001.66
2023-05-12T21:50:58.113Z,101999.97
2023-05-12T21:53:44.385Z,102002.28
2023-05-12T21:56:30.780Z,101999.63
2023-05-12T21:59:17.084Z,102001.25
2023-05-12T22:02:03.924Z,102004.16
2023-05-12T22:04:51.617Z,101997.88
2023-05-12T22:07:37.901Z,102002.09
2023-05-12T22:10:24.080Z,102005.06
2023-05-12T22:13:10.654Z,102011.44
